Time;durP1;ratioP1;P1;durP2;ratioP2;P2;SDS_P1;SDS_P2;PMS_P1;PMS_P2;Temp;Humidity;BMP_temperature;BMP_pressure;BME280_temperature;BME280_humidity;BME280_pressure;Samples;Min_cycle;Max_cycle;Signal;HPM_P1;HPM_P2
2021/06/04 00:01:24;;;;;;;14.93;9.52;;;;;;;20.11;76.69;101744.63;5025647;28;20517;-71
2021/06/04 00:03:50;;;;;;;12.80;9.65;;;;;;;20.10;76.72;101750.91;5024676;28;20544;-71
2021/06/04 00:06:16;;;;;;;13.52;9.85;;;;;;;20.09;76.70;101736.13;5022934;28;20045;-71
2021/06/04 00:08:42;;;;;;;14.35;10.77;;;;;;;20.08;76.47;101741.56;5025259;28;20127;-71
2021/06/04 00:11:33;;;;;;;15.85;10.48;;;;;;;20.07;76.39;101738.13;5025193;28;20174;-71
2021/06/04 00:14:03;;;;;;;14.13;10.20;;;;;;;20.07;76.54;101737.31;5023266;28;20490;-71
2021/06/04 00:16:37;;;;;;;15.68;10.63;;;;;;;20.06;76.59;101735.69;5024459;28;20034;-71
2021/06/04 00:19:09;;;;;;;14.68;11.13;;;;;;;20.01;76.67;101736.28;5023529;28;20434;-71
2021/06/04 00:21:48;;;;;;;12.38;9.35;;;;;;;19.92;77.27;101727.75;5025165;28;20037;-71
2021/06/04 00:24:15;;;;;;;13.07;8.65;;;;;;;19.87;77.36;101718.81;5038718;28;20430;-71
2021/06/04 00:26:44;;;;;;;11.45;8.25;;;;;;;19.87;77.23;101724.88;5024969;28;20041;-71
2021/06/04 00:29:10;;;;;;;17.70;9.18;;;;;;;19.86;77.23;101717.19;5024540;28;20562;-71
2021/06/04 00:31:36;;;;;;;14.38;10.18;;;;;;;19.83;77.42;101724.47;5023903;28;20091;-71
2021/06/04 00:34:02;;;;;;;16.02;10.52;;;;;;;19.80;77.85;101727.47;5024322;28;20029;-71
2021/06/04 00:36:28;;;;;;;14.50;9.10;;;;;;;19.80;77.55;101726.69;5023855;28;20505;-71
2021/06/04 00:38:54;;;;;;;12.35;10.50;;;;;;;19.80;77.49;101721.41;5024405;28;20076;-71
2021/06/04 00:41:45;;;;;;;14.32;10.18;;;;;;;19.81;77.46;101723.84;5025451;28;20030;-70
2021/06/04 00:44:11;;;;;;;15.90;9.80;;;;;;;19.79;77.34;101725.84;5023863;28;20154;-71
2021/06/04 00:46:40;;;;;;;14.35;10.95;;;;;;;19.81;77.30;101725.66;5024964;28;20723;-71
2021/06/04 00:49:07;;;;;;;14.18;11.25;;;;;;;19.80;77.34;101724.06;5040421;28;20109;-71
2021/06/04 00:51:38;;;;;;;16.30;12.00;;;;;;;19.80;77.33;101726.69;5023930;28;20033;-71
2021/06/04 00:54:09;;;;;;;16.45;12.52;;;;;;;19.79;77.31;101725.03;5021781;28;20036;-70
2021/06/04 00:56:37;;;;;;;18.05;12.65;;;;;;;19.80;77.18;101721.41;5040601;28;20025;-71
2021/06/04 00:59:05;;;;;;;16.55;12.35;;;;;;;19.79;77.27;101717.94;5021876;28;20572;-71
2021/06/04 01:01:35;;;;;;;17.77;12.45;;;;;;;19.76;77.54;101718.34;5040023;28;20090;-71
2021/06/04 01:04:14;;;;;;;14.05;10.50;;;;;;;19.75;77.66;101719.34;5023676;28;20044;-71
2021/06/04 01:07:04;;;;;;;20.10;11.23;;;;;;;19.74;77.53;101720.38;5023981;28;20569;-71
2021/06/04 01:09:51;;;;;;;18.85;13.43;;;;;;;19.72;77.38;101725.03;5036717;28;20046;-71
2021/06/04 01:12:54;;;;;;;16.48;12.20;;;;;;;19.69;77.72;101721.94;5037253;28;20026;-71
2021/06/04 01:15:47;;;;;;;14.98;12.25;;;;;;;19.65;77.90;101730.22;5039086;28;20037;-71
2021/06/04 01:18:28;;;;;;;13.00;10.82;;;;;;;19.62;77.80;101722.69;5039093;28;20041;-71
2021/06/04 01:21:01;;;;;;;12.38;9.02;;;;;;;19.57;77.91;101725.09;5022831;28;20437;-71
2021/06/04 01:23:36;;;;;;;10.70;8.63;;;;;;;19.54;77.97;101722.84;5021302;28;20037;-71
2021/06/04 01:26:08;;;;;;;14.50;8.55;;;;;;;19.53;78.00;101726.47;5022354;28;20037;-71
2021/06/04 01:28:43;;;;;;;17.53;10.57;;;;;;;19.51;78.03;101735.56;5022965;28;20033;-71
2021/06/04 01:31:19;;;;;;;20.65;14.50;;;;;;;19.47;78.96;101729.88;5021241;28;20292;-71
2021/06/04 01:33:54;;;;;;;19.58;13.80;;;;;;;19.43;79.37;101731.28;5038787;28;20048;-71
2021/06/04 01:36:28;;;;;;;14.77;12.20;;;;;;;19.43;79.33;101729.44;5038530;28;20029;-71
2021/06/04 01:38:58;;;;;;;15.80;13.23;;;;;;;19.44;79.03;101731.09;5025158;28;20032;-71
2021/06/04 01:41:29;;;;;;;20.15;15.45;;;;;;;19.45;78.88;101729.25;5023589;28;20060;-71
2021/06/04 01:44:05;;;;;;;18.77;14.35;;;;;;;19.44;78.63;101728.47;5038950;28;20033;-71
2021/06/04 01:46:35;;;;;;;21.42;15.13;;;;;;;19.45;78.46;101721.38;5038379;28;20548;-71
2021/06/04 01:49:09;;;;;;;22.42;14.98;;;;;;;19.45;78.50;101731.91;5022828;28;20056;-71
2021/06/04 01:51:41;;;;;;;20.52;15.27;;;;;;;19.46;78.13;101730.91;5020492;28;20386;-71
2021/06/04 01:54:17;;;;;;;19.05;15.20;;;;;;;19.42;78.64;101729.63;5019659;28;20037;-71
2021/06/04 01:56:48;;;;;;;20.10;14.48;;;;;;;19.37;79.24;101737.31;5022067;28;20041;-71
2021/06/04 01:59:33;;;;;;;20.13;16.58;;;;;;;19.31;79.99;101724.91;5036182;28;20402;-71
2021/06/04 02:02:16;;;;;;;22.77;16.35;;;;;;;19.24;80.48;101735.41;5036519;28;20037;-71
2021/06/04 02:04:52;;;;;;;22.73;16.45;;;;;;;19.22;80.60;101730.31;5045185;28;20043;-71
2021/06/04 02:07:24;;;;;;;20.75;15.35;;;;;;;19.23;80.07;101726.69;5021020;28;20104;-71
2021/06/04 02:09:52;;;;;;;22.52;16.25;;;;;;;19.24;79.44;101725.69;5037966;28;20486;-71
2021/06/04 02:12:27;;;;;;;27.88;21.55;;;;;;;19.25;79.59;101731.78;5021388;28;20094;-71
2021/06/04 02:15:11;;;;;;;20.05;16.17;;;;;;;19.18;80.07;101736.97;5022380;28;20029;-71
2021/06/04 02:17:52;;;;;;;23.42;16.70;;;;;;;19.16;79.86;101736.34;5022775;28;20124;-71
2021/06/04 02:20:34;;;;;;;20.23;15.45;;;;;;;19.18;79.52;101725.66;5013483;28;20069;-71
2021/06/04 02:23:34;;;;;;;21.73;15.10;;;;;;;19.16;79.51;101725.84;5022883;28;20056;-71
2021/06/04 02:26:17;;;;;;;23.60;16.52;;;;;;;19.14;80.01;101743.63;5036408;28;20390;-71
2021/06/04 02:28:55;;;;;;;21.00;14.75;;;;;;;19.13;80.08;101741.16;5033426;28;20034;-71
2021/06/04 02:31:29;;;;;;;20.92;15.27;;;;;;;19.12;79.87;101735.09;5023721;28;20119;-71
2021/06/04 02:34:08;;;;;;;25.77;19.75;;;;;;;19.14;79.33;101743.63;5041646;28;20099;-71
2021/06/04 02:36:45;;;;;;;20.83;16.55;;;;;;;19.04;79.60;101740.47;5037834;28;20040;-71
2021/06/04 02:39:31;;;;;;;17.20;13.50;;;;;;;18.93;80.37;101733.94;5025472;28;20533;-71
2021/06/04 02:42:27;;;;;;;20.88;14.73;;;;;;;18.90;80.28;101729.03;5026140;28;20033;-71
2021/06/04 02:45:27;;;;;;;20.48;15.15;;;;;;;18.90;79.97;101734.31;5041159;28;20506;-71
2021/06/04 02:47:59;;;;;;;21.42;14.73;;;;;;;18.92;79.60;101739.38;5041269;28;20033;-71
2021/06/04 02:50:38;;;;;;;19.23;15.68;;;;;;;18.91;79.36;101745.63;5026054;28;20095;-71
2021/06/04 02:53:27;;;;;;;20.48;14.10;;;;;;;18.91;79.09;101745.63;5039662;28;20441;-71
2021/06/04 02:56:12;;;;;;;17.35;13.05;;;;;;;18.91;78.78;101748.25;5036720;28;20049;-71
2021/06/04 02:58:41;;;;;;;21.30;13.85;;;;;;;18.90;78.79;101755.31;5036385;28;20394;-71
2021/06/04 03:01:09;;;;;;;18.65;13.27;;;;;;;18.89;78.62;101748.44;5023558;28;20130;-71
2021/06/04 03:03:36;;;;;;;18.05;13.05;;;;;;;18.87;78.44;101753.06;5040448;28;20405;-71
2021/06/04 03:06:03;;;;;;;22.05;14.80;;;;;;;18.87;78.38;101750.44;5042515;28;20585;-71
2021/06/04 03:08:32;;;;;;;19.67;15.13;;;;;;;18.85;78.37;101758.53;5024017;28;20040;-71
2021/06/04 03:10:58;;;;;;;24.88;15.93;;;;;;;18.79;78.68;101748.72;5026461;28;20057;-71
2021/06/04 03:13:29;;;;;;;20.50;15.23;;;;;;;18.78;78.84;101754.16;5039829;28;20037;-71
2021/06/04 03:16:13;;;;;;;21.85;15.43;;;;;;;18.75;78.60;101757.97;5027453;28;20076;-71
2021/06/04 03:18:43;;;;;;;21.38;15.55;;;;;;;18.72;78.61;101760.97;5039517;28;20042;-72
2021/06/04 03:21:45;;;;;;;21.00;15.43;;;;;;;18.71;78.68;101766.44;5019577;28;20052;-71
2021/06/04 03:24:17;;;;;;;19.85;15.35;;;;;;;18.70;78.51;101773.47;5038776;28;20247;-71
2021/06/04 03:26:44;;;;;;;24.35;18.10;;;;;;;18.67;78.83;101766.00;5040800;28;20429;-71
2021/06/04 03:29:14;;;;;;;25.90;18.23;;;;;;;18.67;78.79;101771.25;5040475;28;20525;-71
2021/06/04 03:31:47;;;;;;;25.50;19.00;;;;;;;18.65;78.75;101770.63;5039804;28;20341;-71
2021/06/04 03:34:14;;;;;;;25.05;18.60;;;;;;;18.57;79.33;101771.53;5023122;28;20057;-71
2021/06/04 03:36:44;;;;;;;28.08;18.83;;;;;;;18.55;79.45;101776.16;5040680;28;20079;-71
2021/06/04 03:39:16;;;;;;;30.35;20.58;;;;;;;18.56;79.45;101774.34;5038744;28;20124;-71
2021/06/04 03:41:45;;;;;;;28.70;19.53;;;;;;;18.55;79.32;101780.59;5025080;28;20029;-71
2021/06/04 03:44:14;;;;;;;25.67;19.30;;;;;;;18.54;79.26;101777.16;5041024;28;20041;-70
2021/06/04 03:46:42;;;;;;;29.50;22.75;;;;;;;18.51;79.14;101782.78;5042694;28;20033;-71
2021/06/04 03:49:10;;;;;;;28.05;18.50;;;;;;;18.48;79.60;101785.78;5037071;28;20486;-71
2021/06/04 03:51:39;;;;;;;24.63;18.05;;;;;;;18.47;79.35;101771.00;5026021;28;20033;-71
2021/06/04 03:54:07;;;;;;;27.02;19.02;;;;;;;18.47;79.30;101777.06;5024528;28;20037;-71
2021/06/04 03:56:33;;;;;;;26.42;18.20;;;;;;;18.45;79.11;101771.19;5026694;28;20129;-71
2021/06/04 03:58:59;;;;;;;27.65;18.98;;;;;;;18.44;79.08;101769.59;5026205;28;20112;-72
2021/06/04 04:01:34;;;;;;;34.70;24.85;;;;;;;18.45;79.18;101765.13;5035349;28;20034;-71
2021/06/04 04:03:59;;;;;;;24.88;19.10;;;;;;;18.37;79.67;101768.69;5024019;28;20646;-71
2021/06/04 04:06:26;;;;;;;23.63;17.98;;;;;;;18.37;79.69;101770.50;5041211;28;20030;-71
2021/06/04 04:08:51;;;;;;;24.13;18.50;;;;;;;18.36;79.43;101769.66;5025252;28;20033;-71
2021/06/04 04:11:16;;;;;;;26.95;17.65;;;;;;;18.33;79.51;101764.81;5026202;28;20555;-71
2021/06/04 04:13:43;;;;;;;22.67;16.05;;;;;;;18.32;79.63;101775.47;5025343;28;20037;-71
2021/06/04 04:16:08;;;;;;;21.58;16.35;;;;;;;18.33;79.52;101785.81;5026629;28;20021;-72
2021/06/04 04:18:34;;;;;;;25.23;17.33;;;;;;;18.34;79.66;101784.78;5026971;28;20048;-71
2021/06/04 04:21:03;;;;;;;27.00;18.67;;;;;;;18.36;79.70;101782.78;5024834;28;20033;-71
2021/06/04 04:23:41;;;;;;;27.52;19.73;;;;;;;18.40;79.67;101786.72;5040449;28;20541;-70
2021/06/04 04:26:08;;;;;;;25.85;18.02;;;;;;;18.43;79.62;101790.75;5026419;28;20254;-71
2021/06/04 04:28:36;;;;;;;30.30;20.75;;;;;;;18.45;79.55;101786.94;5024477;28;20029;-71
2021/06/04 04:31:04;;;;;;;35.20;24.40;;;;;;;18.53;80.17;101795.72;5041670;28;20588;-71
2021/06/04 04:33:30;;;;;;;39.58;26.88;;;;;;;18.49;81.01;101798.69;5025563;28;20076;-71
2021/06/04 04:35:59;;;;;;;36.35;24.17;;;;;;;18.48;81.03;101791.84;5019873;28;20036;-71
2021/06/04 04:38:25;;;;;;;40.10;27.60;;;;;;;18.51;80.97;101795.09;5023711;28;20025;-71
2021/06/04 04:41:00;;;;;;;45.03;32.17;;;;;;;18.52;81.32;101794.09;5041008;28;20516;-71
2021/06/04 04:43:29;;;;;;;44.58;29.33;;;;;;;18.49;81.69;101788.19;5025296;28;20098;-70
2021/06/04 04:45:55;;;;;;;52.22;33.80;;;;;;;18.51;81.84;101790.66;5025695;28;20041;-70
2021/06/04 04:48:21;;;;;;;59.70;38.50;;;;;;;18.54;81.85;101795.53;5026347;28;20075;-71
2021/06/04 04:50:46;;;;;;;54.25;36.13;;;;;;;18.53;82.06;101796.53;5041749;28;20454;-71
2021/06/04 04:53:12;;;;;;;62.95;39.47;;;;;;;18.48;82.04;101799.72;5026961;28;20021;-71
2021/06/04 04:55:39;;;;;;;62.03;40.38;;;;;;;18.54;81.59;101800.00;5025642;28;20045;-71
2021/06/04 04:58:06;;;;;;;55.00;35.90;;;;;;;18.55;81.59;101793.72;5026428;28;20460;-71
2021/06/04 05:00:32;;;;;;;61.30;41.13;;;;;;;18.68;80.88;101804.38;5025582;28;20033;-71
2021/06/04 05:02:59;;;;;;;55.70;37.13;;;;;;;18.71;80.82;101809.25;5024141;28;20037;-71
2021/06/04 05:05:29;;;;;;;53.70;37.25;;;;;;;18.75;80.93;101805.25;5040647;28;20069;-71
2021/06/04 05:07:54;;;;;;;50.50;34.15;;;;;;;18.75;80.75;101805.25;5025544;28;20051;-71
2021/06/04 05:10:20;;;;;;;55.38;37.20;;;;;;;18.76;80.32;101803.44;5040737;28;20037;-71
2021/06/04 05:12:46;;;;;;;55.35;35.63;;;;;;;18.79;80.12;101805.72;5037026;28;20490;-71
2021/06/04 05:15:17;;;;;;;51.47;31.98;;;;;;;18.82;80.01;101808.00;5040165;28;20044;-71
2021/06/04 05:17:43;;;;;;;44.60;28.80;;;;;;;18.89;79.86;101800.19;5023180;28;20543;-71
2021/06/04 05:20:10;;;;;;;59.75;35.85;;;;;;;18.97;79.05;101810.59;5024040;28;20433;-70
2021/06/04 05:22:38;;;;;;;44.13;28.95;;;;;;;19.01;78.86;101814.47;5022883;28;20026;-71
2021/06/04 05:25:07;;;;;;;51.53;34.35;;;;;;;19.06;78.46;101806.81;5020055;28;20056;-71
2021/06/04 05:27:32;;;;;;;44.28;30.45;;;;;;;19.12;78.38;101806.06;5035424;28;20112;-71
2021/06/04 05:29:58;;;;;;;58.85;38.58;;;;;;;19.22;77.61;101808.38;5023681;28;20470;-71
2021/06/04 05:32:23;;;;;;;53.90;34.20;;;;;;;19.25;77.74;101810.66;5038401;28;20037;-71
2021/06/04 05:34:50;;;;;;;54.15;34.08;;;;;;;19.29;77.59;101818.94;5025795;28;20048;-70
2021/06/04 05:37:16;;;;;;;52.50;35.40;;;;;;;19.36;77.12;101812.72;5037390;28;20035;-71
2021/06/04 05:39:41;;;;;;;52.10;30.92;;;;;;;19.42;77.23;101817.25;5022313;28;20087;-71
2021/06/04 05:42:08;;;;;;;60.35;38.83;;;;;;;19.49;76.83;101814.66;5019857;28;20037;-70
2021/06/04 05:44:37;;;;;;;56.58;35.22;;;;;;;19.67;75.48;101821.28;5023721;28;20083;-70
2021/06/04 05:47:08;;;;;;;42.38;29.08;;;;;;;19.70;75.17;101829.59;5024113;28;20120;-70
2021/06/04 05:49:35;;;;;;;46.10;30.45;;;;;;;19.81;74.96;101825.66;5024464;28;20087;-71
2021/06/04 05:52:08;;;;;;;43.03;28.15;;;;;;;19.80;75.07;101821.41;5023978;28;20070;-71
2021/06/04 05:54:36;;;;;;;45.60;31.30;;;;;;;19.79;75.34;101820.56;5024183;28;20116;-71
2021/06/04 05:57:02;;;;;;;42.28;27.35;;;;;;;19.90;75.20;101821.88;5023286;28;20049;-71
2021/06/04 05:59:28;;;;;;;36.50;25.52;;;;;;;20.25;74.32;101821.03;5014216;28;20048;-71
2021/06/04 06:01:53;;;;;;;39.75;26.98;;;;;;;20.59;72.84;101817.53;5022598;28;20033;-71
2021/06/04 06:04:20;;;;;;;51.63;34.58;;;;;;;20.82;70.53;101822.50;5019479;28;20410;-71
2021/06/04 06:06:45;;;;;;;52.03;33.70;;;;;;;20.99;70.36;101821.09;5021420;28;20037;-71
2021/06/04 06:09:11;;;;;;;42.88;28.23;;;;;;;21.04;70.26;101823.16;5022761;28;20029;-71
2021/06/04 06:11:38;;;;;;;44.35;29.25;;;;;;;21.02;70.37;101819.91;5036512;28;20295;-70
2021/06/04 06:14:04;;;;;;;57.50;36.42;;;;;;;20.90;70.62;101819.66;5025729;28;20044;-70
2021/06/04 06:16:30;;;;;;;44.63;30.52;;;;;;;20.78;71.10;101823.91;5026565;28;20037;-71
2021/06/04 06:18:57;;;;;;;50.17;33.00;;;;;;;20.67;71.31;101817.38;5027152;28;20045;-70
2021/06/04 06:21:23;;;;;;;54.58;35.80;;;;;;;20.85;71.21;101823.91;5026349;28;20033;-71
2021/06/04 06:23:48;;;;;;;56.75;36.67;;;;;;;20.80;70.84;101825.31;5022981;28;20482;-71
2021/06/04 06:26:22;;;;;;;46.97;30.58;;;;;;;20.76;71.34;101820.66;5024460;28;20025;-71
2021/06/04 06:28:49;;;;;;;61.08;38.83;;;;;;;20.89;70.61;101820.69;5024430;28;20049;-71
2021/06/04 06:31:20;;;;;;;58.65;39.70;;;;;;;20.85;70.59;101819.47;5040543;28;20083;-71
2021/06/04 06:33:47;;;;;;;52.45;34.15;;;;;;;20.80;70.79;101824.53;5023595;28;20698;-70
2021/06/04 06:36:16;;;;;;;55.97;37.67;;;;;;;20.87;70.47;101827.16;5027298;28;20493;-71
2021/06/04 06:38:41;;;;;;;44.45;26.92;;;;;;;20.99;70.83;101829.00;5025610;28;20048;-71
2021/06/04 06:41:10;;;;;;;60.00;36.83;;;;;;;21.07;70.17;101829.84;5027375;28;20041;-71
2021/06/04 06:43:38;;;;;;;60.50;39.15;;;;;;;21.12;70.90;101832.69;5027292;28;20033;-71
2021/06/04 06:46:06;;;;;;;52.22;36.30;;;;;;;21.08;70.97;101834.06;5042353;28;20042;-71
2021/06/04 06:48:33;;;;;;;87.50;52.45;;;;;;;21.20;70.75;101832.47;5037692;28;20095;-71
2021/06/04 06:50:58;;;;;;;61.25;41.20;;;;;;;21.20;70.32;101835.13;5027761;28;20052;-71
2021/06/04 06:53:24;;;;;;;61.60;42.60;;;;;;;21.66;69.37;101833.50;5026511;28;20029;-72
2021/06/04 06:55:52;;;;;;;48.03;34.05;;;;;;;22.20;67.72;101834.22;5039784;28;20361;-71
2021/06/04 06:58:18;;;;;;;59.17;38.17;;;;;;;22.29;67.49;101833.81;5042190;28;20025;-71
2021/06/04 07:00:46;;;;;;;55.42;36.13;;;;;;;22.33;66.46;101837.66;5025724;28;20036;-71
2021/06/04 07:03:14;;;;;;;53.95;37.50;;;;;;;22.69;65.69;101838.91;5025446;28;20063;-71
2021/06/04 07:05:40;;;;;;;50.05;34.45;;;;;;;23.28;63.97;101838.75;5047141;28;20035;-71
2021/06/04 07:08:09;;;;;;;53.50;37.95;;;;;;;23.78;62.78;101843.22;5027091;28;20030;-71
2021/06/04 07:10:35;;;;;;;50.63;35.83;;;;;;;24.32;59.38;101840.78;5025205;28;20367;-71
2021/06/04 07:13:04;;;;;;;50.65;33.47;;;;;;;24.36;60.52;101839.34;5025205;28;20110;-71
2021/06/04 07:15:30;;;;;;;46.25;32.85;;;;;;;24.09;61.79;101843.13;5042084;28;20060;-71
2021/06/04 07:17:58;;;;;;;52.67;35.70;;;;;;;24.13;59.75;101834.72;5022191;28;20405;-71
2021/06/04 07:20:27;;;;;;;45.38;32.45;;;;;;;24.53;60.14;101837.72;5030943;28;20223;-72
2021/06/04 07:22:54;;;;;;;48.72;33.95;;;;;;;24.80;59.67;101843.44;5024642;28;20777;-72
2021/06/04 07:25:22;;;;;;;44.72;31.27;;;;;;;25.05;58.68;101832.69;5022918;28;20490;-72
2021/06/04 07:27:48;;;;;;;52.22;34.03;;;;;;;25.27;58.24;101834.03;5025576;28;20329;-72
2021/06/04 07:30:24;;;;;;;48.03;32.92;;;;;;;25.61;57.22;101832.41;5026215;28;20398;-72
2021/06/04 07:32:50;;;;;;;43.17;30.52;;;;;;;25.62;56.88;101837.50;5039226;28;20090;-73
2021/06/04 07:35:18;;;;;;;43.42;30.08;;;;;;;25.95;57.12;101835.28;5027117;28;20029;-71
2021/06/04 07:37:44;;;;;;;47.40;32.85;;;;;;;26.31;56.05;101830.69;5024983;28;20033;-72
2021/06/04 07:40:15;;;;;;;42.25;26.63;;;;;;;26.55;55.22;101831.41;5027064;28;20509;-71
2021/06/04 07:42:40;;;;;;;39.13;28.17;;;;;;;26.71;55.12;101830.66;5038088;28;20033;-72
2021/06/04 07:45:08;;;;;;;41.00;28.00;;;;;;;26.68;52.79;101833.00;5027118;28;20025;-72
2021/06/04 07:47:34;;;;;;;33.45;24.67;;;;;;;26.80;53.42;101831.06;5023220;28;20120;-71
2021/06/04 07:50:00;;;;;;;42.78;27.55;;;;;;;26.87;53.14;101834.38;5027679;28;20096;-72
2021/06/04 07:52:26;;;;;;;40.78;27.20;;;;;;;27.12;52.29;101828.66;5021736;28;20168;-71
2021/06/04 07:54:52;;;;;;;35.72;25.25;;;;;;;27.25;51.76;101835.53;5028783;28;20064;-71
2021/06/04 07:57:18;;;;;;;39.42;25.88;;;;;;;27.28;51.89;101843.06;5025163;28;20462;-72
2021/06/04 07:59:43;;;;;;;42.60;28.58;;;;;;;27.48;50.81;101833.75;5038682;28;20120;-73
2021/06/04 08:02:09;;;;;;;38.35;27.70;;;;;;;27.42;52.51;101837.38;5026850;28;20123;-71
2021/06/04 08:04:35;;;;;;;40.33;27.90;;;;;;;27.58;50.97;101833.91;5040320;28;20042;-72
2021/06/04 08:07:01;;;;;;;39.05;27.00;;;;;;;27.81;50.40;101848.06;5024294;28;20030;-73
2021/06/04 08:09:27;;;;;;;32.72;24.58;;;;;;;27.99;49.88;101831.81;5022322;28;20475;-74
2021/06/04 08:12:00;;;;;;;37.13;25.23;;;;;;;28.23;49.97;101840.31;5040928;28;20109;-72
2021/06/04 08:14:26;;;;;;;33.00;24.52;;;;;;;28.42;49.76;101847.97;5025518;28;20560;-72
2021/06/04 08:16:54;;;;;;;32.40;21.88;;;;;;;28.67;47.91;101837.59;5025808;28;20469;-73
2021/06/04 08:19:21;;;;;;;34.13;26.33;;;;;;;28.77;47.34;101828.88;5024619;28;20037;-72
2021/06/04 08:21:50;;;;;;;33.28;23.75;;;;;;;28.52;47.77;101832.94;5025855;28;20478;-73
2021/06/04 08:24:19;;;;;;;30.38;22.80;;;;;;;28.98;46.48;101829.06;5020310;28;20033;-72
2021/06/04 08:26:46;;;;;;;35.42;26.67;;;;;;;28.94;48.25;101828.75;5024988;28;20048;-73
2021/06/04 08:29:12;;;;;;;28.38;20.45;;;;;;;29.00;47.69;101830.41;5026136;28;20152;-73
2021/06/04 08:31:39;;;;;;;36.15;24.40;;;;;;;28.97;47.10;101822.91;5023839;28;20040;-72
2021/06/04 08:34:06;;;;;;;35.50;25.73;;;;;;;28.99;47.58;101819.97;5024414;28;20083;-73
2021/06/04 08:36:34;;;;;;;35.05;26.02;;;;;;;28.58;47.32;101828.44;5024642;28;20033;-72
2021/06/04 08:39:03;;;;;;;27.15;19.02;;;;;;;28.51;48.42;101819.81;5023856;28;20025;-73
2021/06/04 08:41:50;;;;;;;31.38;23.90;;;;;;;28.78;48.95;101819.00;5025986;28;20069;-73
2021/06/04 08:44:34;;;;;;;26.60;17.88;;;;;;;29.19;48.27;101830.84;5025876;28;20613;-72
2021/06/04 08:47:13;;;;;;;25.40;20.17;;;;;;;29.42;47.12;101832.34;5021084;28;20496;-73
2021/06/04 08:49:54;;;;;;;36.08;24.95;;;;;;;29.31;47.15;101830.66;5038067;28;20494;-72
2021/06/04 08:52:41;;;;;;;35.85;26.17;;;;;;;28.83;48.31;101827.06;5018434;28;20079;-73
2021/06/04 08:55:37;;;;;;;30.33;22.33;;;;;;;28.06;47.38;101819.06;5033241;28;20025;-72
2021/06/04 08:58:18;;;;;;;26.38;18.15;;;;;;;27.54;50.26;101825.59;5024000;28;20057;-73
2021/06/04 09:00:57;;;;;;;30.30;20.58;;;;;;;27.31;51.74;101821.28;5039368;28;20033;-73
2021/06/04 09:04:03;;;;;;;29.92;20.90;;;;;;;28.21;49.22;101826.44;5024739;28;20073;-72
2021/06/04 09:06:36;;;;;;;31.98;21.25;;;;;;;28.19;48.26;101822.41;5039625;28;20044;-73
2021/06/04 09:09:13;;;;;;;31.88;21.67;;;;;;;27.61;48.42;101822.72;5023321;28;20037;-72
2021/06/04 09:11:39;;;;;;;31.85;21.42;;;;;;;27.96;47.35;101824.28;5040987;28;20441;-72
2021/06/04 09:14:07;;;;;;;35.92;24.85;;;;;;;28.28;47.94;101818.25;5022565;28;20041;-73
2021/06/04 09:17:05;;;;;;;32.10;20.95;;;;;;;27.77;47.63;101821.91;5024378;28;20092;-73
2021/06/04 09:19:49;;;;;;;29.48;19.80;;;;;;;27.79;48.25;101812.88;5020187;28;20042;-73
2021/06/04 09:22:15;;;;;;;28.90;20.13;;;;;;;27.80;48.02;101815.25;5022851;28;20041;-73
2021/06/04 09:24:47;;;;;;;39.33;22.75;;;;;;;27.95;48.08;101815.50;5039432;28;20037;-73
2021/06/04 09:27:36;;;;;;;31.40;22.05;;;;;;;27.51;49.06;101815.41;5024665;28;20521;-73
2021/06/04 09:30:25;;;;;;;25.35;17.45;;;;;;;27.86;48.10;101811.63;5015740;28;20134;-72
2021/06/04 09:33:07;;;;;;;26.20;16.60;;;;;;;27.84;48.45;101812.91;5016839;28;20048;-73
2021/06/04 09:35:34;;;;;;;22.67;15.93;;;;;;;28.11;47.58;101808.47;5038998;28;20041;-73
2021/06/04 09:38:16;;;;;;;28.60;17.05;;;;;;;28.52;44.63;101806.25;5023145;28;20660;-72
2021/06/04 09:40:43;;;;;;;;;;;;;;;28.62;43.69;101808.22;5020669;28;20117;-73
2021/06/04 09:43:19;;;;;;;23.60;15.15;;;;;;;29.00;44.87;101810.91;5022346;28;19924;-73
2021/06/04 09:45:55;;;;;;;22.90;15.88;;;;;;;29.26;43.80;101804.72;5040339;28;20029;-72
2021/06/04 09:48:32;;;;;;;22.02;14.70;;;;;;;29.36;42.43;101797.84;5019479;28;20033;-73
2021/06/04 09:51:07;;;;;;;28.10;17.70;;;;;;;29.44;41.25;101797.34;5017707;28;20034;-73
2021/06/04 09:53:33;;;;;;;19.80;14.40;;;;;;;29.36;41.86;101795.97;5035700;28;20068;-73
2021/06/04 09:56:07;;;;;;;27.27;19.00;;;;;;;29.08;41.57;101802.44;5019807;28;20060;-71
2021/06/04 09:58:55;;;;;;;28.83;16.45;;;;;;;29.05;44.51;101784.28;5035531;28;20049;-71
2021/06/04 10:01:25;;;;;;;22.83;14.95;;;;;;;29.20;42.06;101796.94;5038723;28;21982;-72
2021/06/04 10:03:52;;;;;;;23.35;14.85;;;;;;;29.19;42.38;101795.31;5038823;28;20031;-72
2021/06/04 10:06:29;;;;;;;19.92;13.65;;;;;;;28.94;43.67;101794.06;5022537;28;20816;-73
2021/06/04 10:08:57;;;;;;;23.38;15.60;;;;;;;28.67;43.20;101797.59;5034754;28;20036;-74
2021/06/04 10:11:39;;;;;;;22.77;13.15;;;;;;;28.40;44.09;101786.91;5019647;28;20025;-72
2021/06/04 10:14:21;;;;;;;24.67;16.23;;;;;;;28.61;44.17;101787.91;5022471;28;20437;-73
2021/06/04 10:19:44;;;;;;;22.88;13.50;;;;;;;29.17;42.88;101784.91;5022762;28;20072;-73
2021/06/04 10:22:17;;;;;;;20.38;12.77;;;;;;;29.57;42.72;101793.41;5021797;28;20045;-73
2021/06/04 10:25:12;;;;;;;22.02;15.00;;;;;;;29.62;40.59;101793.44;5024630;28;20037;-73
2021/06/04 10:27:40;;;;;;;21.88;14.35;;;;;;;29.47;41.03;101786.94;5015764;28;20050;-71
2021/06/04 10:30:11;;;;;;;18.00;11.23;;;;;;;29.43;41.94;101790.41;5023701;28;20033;-72
2021/06/04 10:32:55;;;;;;;15.40;10.68;;;;;;;29.74;42.33;101785.22;5020969;28;20105;-73
2021/06/04 10:35:50;;;;;;;23.48;15.90;;;;;;;29.38;41.52;101780.47;5035505;28;20059;-72
2021/06/04 10:38:32;;;;;;;24.48;17.08;;;;;;;28.70;43.81;101781.06;5026320;28;20033;-73
2021/06/04 10:41:01;;;;;;;17.67;12.60;;;;;;;28.39;45.22;101779.16;5035618;28;20033;-73
2021/06/04 10:43:53;;;;;;;20.13;13.18;;;;;;;28.39;44.29;101781.81;5037254;28;20045;-71
2021/06/04 10:46:37;;;;;;;23.10;12.33;;;;;;;28.49;44.89;101780.06;5030683;28;20037;-71
2021/06/04 10:49:24;;;;;;;19.52;14.07;;;;;;;28.63;42.57;101780.50;5030128;28;20044;-70
2021/06/04 10:51:56;;;;;;;22.15;12.63;;;;;;;28.93;42.50;101769.25;5037703;28;20522;-70
2021/06/04 10:54:40;;;;;;;31.50;16.60;;;;;;;29.11;41.67;101770.69;5021957;28;20064;-72
2021/06/04 10:57:12;;;;;;;17.67;10.82;;;;;;;28.96;42.04;101773.25;5023970;28;20486;-71
2021/06/04 10:59:58;;;;;;;23.38;14.60;;;;;;;29.00;41.36;101777.00;5024021;28;20048;-71
2021/06/04 11:02:36;;;;;;;14.98;9.68;;;;;;;29.02;43.08;101774.09;5025673;28;20026;-71
2021/06/04 11:05:06;;;;;;;14.38;10.02;;;;;;;29.14;42.74;101758.72;5026466;28;20033;-71
2021/06/04 11:07:42;;;;;;;12.50;10.10;;;;;;;29.03;42.90;101754.38;5038633;28;20059;-70
2021/06/04 11:10:21;;;;;;;15.52;11.73;;;;;;;28.81;42.63;101757.13;5027726;28;20131;-71
2021/06/04 11:13:09;;;;;;;16.17;10.93;;;;;;;28.80;43.63;101759.00;5042608;28;20116;-72
2021/06/04 11:15:54;;;;;;;16.52;10.25;;;;;;;28.81;44.44;101755.28;5024317;28;20476;-71
2021/06/04 11:18:38;;;;;;;22.50;14.13;;;;;;;28.83;42.65;101747.00;5023741;28;20037;-71
2021/06/04 11:21:05;;;;;;;19.13;13.48;;;;;;;28.99;42.63;101743.41;5024981;28;20549;-71
2021/06/04 11:23:46;;;;;;;20.98;13.55;;;;;;;29.36;42.58;101729.19;5041608;28;20029;-71
2021/06/04 11:26:19;;;;;;;18.30;13.57;;;;;;;29.35;42.88;101729.44;5024515;28;20044;-71
2021/06/04 11:29:11;;;;;;;19.90;13.88;;;;;;;28.99;43.22;101727.38;5022882;28;20063;-71
2021/06/04 11:32:12;;;;;;;14.65;9.32;;;;;;;28.89;45.06;101728.09;5020841;28;20034;-71
2021/06/04 11:34:38;;;;;;;15.45;10.35;;;;;;;28.64;44.50;101730.59;5025257;28;20088;-71
2021/06/04 11:37:07;;;;;;;13.85;10.20;;;;;;;28.66;45.53;101723.94;5026383;28;20061;-71